METAR Data
IDs: Format: Raw Decoded Include TAF

Data at: 1441 UTC 25 Jan 2020

METAR for:KMCW (Mason City Muni, IA, US)
Text:KMCW 251436Z AUTO 31014KT 7SM SCT008 OVC018 M03/M04 A2997 RMK AO2 T10281044
Temperature: -2.8°C ( 27°F)
Dewpoint: -4.4°C ( 24°F) [RH = 89%]
Pressure (altimeter):29.97 inches Hg (1015.0 mb)
Winds:from the NW (310 degrees) at 16 MPH (14 knots; 7.2 m/s)
Visibility: 7 sm ( 11 km)
Ceiling:1800 feet AGL
Clouds: scattered clouds at 800 feet AGL, overcast cloud deck at 1800 feet AGL
QC Flag:automated observation with no human augmentation